sensor_id;sensor_type;location;lat;lon;timestamp;pressure;altitude;pressure_sealevel;temperature;humidity
57779;BME280;43608;49.486;9.640;2023-04-04T00:00:25;99699.34;;;-2.01;65.48
57779;BME280;43608;49.486;9.640;2023-04-04T00:00:56;99699.25;;;-2.02;65.40
57779;BME280;43608;49.486;9.640;2023-04-04T00:01:27;99649.09;;;-2.29;65.59
57779;BME280;43608;49.486;9.640;2023-04-04T00:01:57;99689.88;;;-2.00;65.50
57779;BME280;43608;49.486;9.640;2023-04-04T00:02:30;99678.78;;;-2.11;65.78
57779;BME280;43608;49.486;9.640;2023-04-04T00:03:00;99704.75;;;-1.97;65.73
57779;BME280;43608;49.486;9.640;2023-04-04T00:03:30;99701.13;;;-2.00;65.63
57779;BME280;43608;49.486;9.640;2023-04-04T00:04:01;99688.69;;;-2.05;65.80
57779;BME280;43608;49.486;9.640;2023-04-04T00:04:31;99683.81;;;-2.14;65.72
57779;BME280;43608;49.486;9.640;2023-04-04T00:05:06;99690.28;;;-2.07;65.74
57779;BME280;43608;49.486;9.640;2023-04-04T00:05:39;99699.88;;;-2.06;66.01
57779;BME280;43608;49.486;9.640;2023-04-04T00:06:09;99704.44;;;-2.02;65.77
57779;BME280;43608;49.486;9.640;2023-04-04T00:06:40;99702.63;;;-2.03;65.95
57779;BME280;43608;49.486;9.640;2023-04-04T00:07:13;99686.41;;;-2.14;65.84
57779;BME280;43608;49.486;9.640;2023-04-04T00:07:47;99696.25;;;-2.08;66.03
57779;BME280;43608;49.486;9.640;2023-04-04T00:08:17;99681.81;;;-2.18;66.16
57779;BME280;43608;49.486;9.640;2023-04-04T00:08:47;99705.06;;;-2.06;66.25
57779;BME280;43608;49.486;9.640;2023-04-04T00:09:18;99689.19;;;-2.11;66.21
57779;BME280;43608;49.486;9.640;2023-04-04T00:09:49;99678.22;;;-2.20;66.07
57779;BME280;43608;49.486;9.640;2023-04-04T00:10:19;99686.41;;;-2.14;66.33
57779;BME280;43608;49.486;9.640;2023-04-04T00:10:56;99697.19;;;-2.08;66.28
57779;BME280;43608;49.486;9.640;2023-04-04T00:11:27;99697.97;;;-2.09;66.36
57779;BME280;43608;49.486;9.640;2023-04-04T00:11:57;99693.31;;;-2.14;66.58
57779;BME280;43608;49.486;9.640;2023-04-04T00:12:28;99662.78;;;-2.32;66.48
57779;BME280;43608;49.486;9.640;2023-04-04T00:12:58;99672.75;;;-2.25;66.50
57779;BME280;43608;49.486;9.640;2023-04-04T00:13:29;99686.22;;;-2.17;66.67
57779;BME280;43608;49.486;9.640;2023-04-04T00:13:59;99680.09;;;-2.18;66.66
57779;BME280;43608;49.486;9.640;2023-04-04T00:14:30;99685.41;;;-2.16;66.74
57779;BME280;43608;49.486;9.640;2023-04-04T00:15:05;99677.25;;;-2.22;66.74
57779;BME280;43608;49.486;9.640;2023-04-04T00:15:35;99679.31;;;-2.17;66.81
57779;BME280;43608;49.486;9.640;2023-04-04T00:16:06;99667.34;;;-2.28;66.82
57779;BME280;43608;49.486;9.640;2023-04-04T00:16:36;99690.81;;;-2.13;66.78
57779;BME280;43608;49.486;9.640;2023-04-04T00:17:07;99678.03;;;-2.23;66.04
57779;BME280;43608;49.486;9.640;2023-04-04T00:17:37;99659.28;;;-2.33;66.61
57779;BME280;43608;49.486;9.640;2023-04-04T00:18:08;99675.53;;;-2.22;66.53
57779;BME280;43608;49.486;9.640;2023-04-04T00:18:38;99685.31;;;-2.18;66.68
57779;BME280;43608;49.486;9.640;2023-04-04T00:19:09;99659.38;;;-2.31;66.86
57779;BME280;43608;49.486;9.640;2023-04-04T00:19:43;99672.06;;;-2.22;66.73
57779;BME280;43608;49.486;9.640;2023-04-04T00:20:13;99681.81;;;-2.18;66.69
57779;BME280;43608;49.486;9.640;2023-04-04T00:20:44;99683.50;;;-2.19;66.70
57779;BME280;43608;49.486;9.640;2023-04-04T00:21:14;99669.25;;;-2.25;66.86
57779;BME280;43608;49.486;9.640;2023-04-04T00:21:45;99682.63;;;-2.19;66.88
57779;BME280;43608;49.486;9.640;2023-04-04T00:22:15;99670.03;;;-2.26;66.99
57779;BME280;43608;49.486;9.640;2023-04-04T00:22:47;99666.47;;;-2.28;66.80
57779;BME280;43608;49.486;9.640;2023-04-04T00:23:20;99692.31;;;-2.17;67.01
57779;BME280;43608;49.486;9.640;2023-04-04T00:23:51;99686.00;;;-2.20;67.03
57779;BME280;43608;49.486;9.640;2023-04-04T00:24:23;99678.03;;;-2.23;67.48
57779;BME280;43608;49.486;9.640;2023-04-04T00:24:54;99675.44;;;-2.23;67.22
57779;BME280;43608;49.486;9.640;2023-04-04T00:25:24;99671.94;;;-2.24;67.35
57779;BME280;43608;49.486;9.640;2023-04-04T00:25:55;99668.34;;;-2.26;67.27
57779;BME280;43608;49.486;9.640;2023-04-04T00:26:25;99655.78;;;-2.33;67.40
57779;BME280;43608;49.486;9.640;2023-04-04T00:26:56;99672.84;;;-2.23;67.31
57779;BME280;43608;49.486;9.640;2023-04-04T00:27:26;99649.63;;;-2.35;67.23
57779;BME280;43608;49.486;9.640;2023-04-04T00:27:56;99671.75;;;-2.27;67.44
57779;BME280;43608;49.486;9.640;2023-04-04T00:28:29;99678.22;;;-2.20;67.63
57779;BME280;43608;49.486;9.640;2023-04-04T00:29:00;99670.97;;;-2.26;67.58
57779;BME280;43608;49.486;9.640;2023-04-04T00:29:30;99668.97;;;-2.30;67.48
57779;BME280;43608;49.486;9.640;2023-04-04T00:30:03;99668.84;;;-2.32;67.63
57779;BME280;43608;49.486;9.640;2023-04-04T00:30:34;99684.91;;;-2.24;67.45
57779;BME280;43608;49.486;9.640;2023-04-04T00:31:05;99673.16;;;-2.32;67.35
57779;BME280;43608;49.486;9.640;2023-04-04T00:31:35;99651.91;;;-2.40;67.24
57779;BME280;43608;49.486;9.640;2023-04-04T00:32:05;99661.59;;;-2.37;67.48
57779;BME280;43608;49.486;9.640;2023-04-04T00:32:36;99666.69;;;-2.39;67.44
57779;BME280;43608;49.486;9.640;2023-04-04T00:33:06;99676.84;;;-2.28;67.48
57779;BME280;43608;49.486;9.640;2023-04-04T00:33:37;99668.66;;;-2.35;67.71
57779;BME280;43608;49.486;9.640;2023-04-04T00:34:08;99658.59;;;-2.43;67.53
57779;BME280;43608;49.486;9.640;2023-04-04T00:34:38;99677.47;;;-2.33;67.59
57779;BME280;43608;49.486;9.640;2023-04-04T00:35:08;99678.34;;;-2.32;67.47
57779;BME280;43608;49.486;9.640;2023-04-04T00:35:39;99673.97;;;-2.33;67.48
57779;BME280;43608;49.486;9.640;2023-04-04T00:36:10;99679.16;;;-2.33;67.38
57779;BME280;43608;49.486;9.640;2023-04-04T00:36:40;99660.50;;;-2.41;67.54
57779;BME280;43608;49.486;9.640;2023-04-04T00:37:11;99653.13;;;-2.48;67.78
57779;BME280;43608;49.486;9.640;2023-04-04T00:37:42;99671.88;;;-2.39;67.74
57779;BME280;43608;49.486;9.640;2023-04-04T00:38:12;99665.69;;;-2.41;67.50
57779;BME280;43608;49.486;9.640;2023-04-04T00:38:43;99658.59;;;-2.43;67.48
57779;BME280;43608;49.486;9.640;2023-04-04T00:39:13;99658.50;;;-2.45;67.44
57779;BME280;43608;49.486;9.640;2023-04-04T00:39:43;99670.00;;;-2.41;67.53
57779;BME280;43608;49.486;9.640;2023-04-04T00:40:17;99666.28;;;-2.45;67.77
57779;BME280;43608;49.486;9.640;2023-04-04T00:40:48;99665.50;;;-2.44;67.63
57779;BME280;43608;49.486;9.640;2023-04-04T00:41:20;99664.63;;;-2.44;68.03
57779;BME280;43608;49.486;9.640;2023-04-04T00:41:50;99679.66;;;-2.39;67.68
57779;BME280;43608;49.486;9.640;2023-04-04T00:42:22;99662.03;;;-2.44;67.40
57779;BME280;43608;49.486;9.640;2023-04-04T00:42:52;99645.66;;;-2.57;67.57
57779;BME280;43608;49.486;9.640;2023-04-04T00:43:24;99676.69;;;-2.45;67.79
57779;BME280;43608;49.486;9.640;2023-04-04T00:43:59;99663.59;;;-2.46;67.66
57779;BME280;43608;49.486;9.640;2023-04-04T00:44:31;99660.84;;;-2.50;67.92
57779;BME280;43608;49.486;9.640;2023-04-04T00:45:01;99668.81;;;-2.46;68.06
57779;BME280;43608;49.486;9.640;2023-04-04T00:45:33;99676.78;;;-2.43;67.99
57779;BME280;43608;49.486;9.640;2023-04-04T00:46:04;99674.16;;;-2.43;67.88
57779;BME280;43608;49.486;9.640;2023-04-04T00:46:34;99663.31;;;-2.51;67.74
57779;BME280;43608;49.486;9.640;2023-04-04T00:47:07;99670.38;;;-2.49;67.72
57779;BME280;43608;49.486;9.640;2023-04-04T00:47:38;99653.34;;;-2.58;68.16
57779;BME280;43608;49.486;9.640;2023-04-04T00:48:12;99666.81;;;-2.51;67.96
57779;BME280;43608;49.486;9.640;2023-04-04T00:48:43;99670.38;;;-2.49;68.18
57779;BME280;43608;49.486;9.640;2023-04-04T00:49:13;99667.59;;;-2.52;68.17
57779;BME280;43608;49.486;9.640;2023-04-04T00:49:44;99662.25;;;-2.55;68.23
57779;BME280;43608;49.486;9.640;2023-04-04T00:50:15;99661.13;;;-2.58;68.34
57779;BME280;43608;49.486;9.640;2023-04-04T00:50:47;99658.63;;;-2.57;68.32
57779;BME280;43608;49.486;9.640;2023-04-04T00:51:17;99672.72;;;-2.53;68.50
57779;BME280;43608;49.486;9.640;2023-04-04T00:51:47;99653.03;;;-2.63;68.40
57779;BME280;43608;49.486;9.640;2023-04-04T00:52:18;99684.19;;;-2.50;68.39
57779;BME280;43608;49.486;9.640;2023-04-04T00:52:49;99666.50;;;-2.55;68.32
57779;BME280;43608;49.486;9.640;2023-04-04T00:53:19;99667.31;;;-2.56;68.50
57779;BME280;43608;49.486;9.640;2023-04-04T00:53:51;99660.91;;;-2.61;68.44
57779;BME280;43608;49.486;9.640;2023-04-04T00:54:21;99671.63;;;-2.57;68.46
57779;BME280;43608;49.486;9.640;2023-04-04T00:54:54;99675.09;;;-2.56;68.41
57779;BME280;43608;49.486;9.640;2023-04-04T00:55:25;99667.13;;;-2.59;68.44
57779;BME280;43608;49.486;9.640;2023-04-04T00:55:56;99656.34;;;-2.66;68.39
57779;BME280;43608;49.486;9.640;2023-04-04T00:56:27;99654.44;;;-2.68;68.67
57779;BME280;43608;49.486;9.640;2023-04-04T00:56:59;99657.16;;;-2.67;68.62
57779;BME280;43608;49.486;9.640;2023-04-04T00:57:32;99648.88;;;-2.74;68.91
57779;BME280;43608;49.486;9.640;2023-04-04T00:58:03;99657.97;;;-2.68;68.79
57779;BME280;43608;49.486;9.640;2023-04-04T00:58:33;99661.25;;;-2.70;68.79
57779;BME280;43608;49.486;9.640;2023-04-04T00:59:05;99664.66;;;-2.71;68.90
57779;BME280;43608;49.486;9.640;2023-04-04T00:59:39;99650.47;;;-2.76;68.87
57779;BME280;43608;49.486;9.640;2023-04-04T01:00:11;99583.94;;;-3.16;68.65
57779;BME280;43608;49.486;9.640;2023-04-04T01:00:42;99676.31;;;-2.64;68.81
57779;BME280;43608;49.486;9.640;2023-04-04T01:01:13;99662.94;;;-2.71;68.98
57779;BME280;43608;49.486;9.640;2023-04-04T01:01:43;99675.34;;;-2.67;69.11
57779;BME280;43608;49.486;9.640;2023-04-04T01:02:14;99674.13;;;-2.72;69.26
57779;BME280;43608;49.486;9.640;2023-04-04T01:02:45;99669.34;;;-2.79;69.11
57779;BME280;43608;49.486;9.640;2023-04-04T01:03:15;99676.59;;;-2.73;69.12
57779;BME280;43608;49.486;9.640;2023-04-04T01:03:46;99677.72;;;-2.70;68.95
57779;BME280;43608;49.486;9.640;2023-04-04T01:04:16;99673.91;;;-2.75;69.12
57779;BME280;43608;49.486;9.640;2023-04-04T01:04:47;99686.28;;;-2.71;69.21
57779;BME280;43608;49.486;9.640;2023-04-04T01:05:17;99679.19;;;-2.73;69.14
57779;BME280;43608;49.486;9.640;2023-04-04T01:05:48;99658.56;;;-2.85;69.35
57779;BME280;43608;49.486;9.640;2023-04-04T01:06:18;99650.38;;;-2.91;69.33
57779;BME280;43608;49.486;9.640;2023-04-04T01:06:49;99682.63;;;-2.74;69.48
57779;BME280;43608;49.486;9.640;2023-04-04T01:07:20;99669.25;;;-2.80;69.40
57779;BME280;43608;49.486;9.640;2023-04-04T01:07:50;99666.66;;;-2.80;69.50
57779;BME280;43608;49.486;9.640;2023-04-04T01:08:24;99678.22;;;-2.75;69.54
57779;BME280;43608;49.486;9.640;2023-04-04T01:08:55;99671.63;;;-2.84;69.76
57779;BME280;43608;49.486;9.640;2023-04-04T01:09:27;99665.63;;;-2.83;69.58
57779;BME280;43608;49.486;9.640;2023-04-04T01:10:01;99668.16;;;-2.84;69.74
57779;BME280;43608;49.486;9.640;2023-04-04T01:10:33;99661.75;;;-2.89;69.83
57779;BME280;43608;49.486;9.640;2023-04-04T01:11:05;99681.31;;;-2.81;69.80
57779;BME280;43608;49.486;9.640;2023-04-04T01:11:36;99657.88;;;-2.96;69.72
57779;BME280;43608;49.486;9.640;2023-04-04T01:12:07;99671.53;;;-2.85;69.65
57779;BME280;43608;49.486;9.640;2023-04-04T01:12:38;99642.69;;;-3.03;69.86
57779;BME280;43608;49.486;9.640;2023-04-04T01:13:09;99658.75;;;-2.95;69.90
57779;BME280;43608;49.486;9.640;2023-04-04T01:13:40;99671.34;;;-2.88;70.00
57779;BME280;43608;49.486;9.640;2023-04-04T01:14:12;99668.75;;;-2.88;69.97
57779;BME280;43608;49.486;9.640;2023-04-04T01:14:42;99643.53;;;-3.04;70.03
57779;BME280;43608;49.486;9.640;2023-04-04T01:15:13;99659.59;;;-2.96;70.07
57779;BME280;43608;49.486;9.640;2023-04-04T01:15:44;99647.88;;;-3.03;69.95
57779;BME280;43608;49.486;9.640;2023-04-04T01:16:14;99660.38;;;-2.97;70.14
57779;BME280;43608;49.486;9.640;2023-04-04T01:16:45;99673.84;;;-2.90;70.33
57779;BME280;43608;49.486;9.640;2023-04-04T01:17:17;99672.84;;;-2.92;70.48
57779;BME280;43608;49.486;9.640;2023-04-04T01:17:49;99657.47;;;-3.02;70.32
57779;BME280;43608;49.486;9.640;2023-04-04T01:18:22;99662.97;;;-2.97;70.39
57779;BME280;43608;49.486;9.640;2023-04-04T01:18:54;99668.53;;;-2.91;70.55
57779;BME280;43608;49.486;9.640;2023-04-04T01:19:31;99663.06;;;-2.96;70.59
57779;BME280;43608;49.486;9.640;2023-04-04T01:20:39;99674.63;;;-2.91;70.59
57779;BME280;43608;49.486;9.640;2023-04-04T01:21:12;99674.63;;;-2.91;70.81
57779;BME280;43608;49.486;9.640;2023-04-04T01:21:47;99671.13;;;-2.91;70.59
57779;BME280;43608;49.486;9.640;2023-04-04T01:22:19;99673.63;;;-2.93;70.96
57779;BME280;43608;49.486;9.640;2023-04-04T01:22:52;99672.56;;;-2.96;70.81
57779;BME280;43608;49.486;9.640;2023-04-04T01:23:31;99665.94;;;-2.91;70.82
57779;BME280;43608;49.486;9.640;2023-04-04T01:24:05;99665.84;;;-2.93;70.86
57779;BME280;43608;49.486;9.640;2023-04-04T01:24:38;99634.22;;;-3.14;71.06
57779;BME280;43608;49.486;9.640;2023-04-04T01:25:11;99668.44;;;-2.93;70.66
57779;BME280;43608;49.486;9.640;2023-04-04T01:25:47;99676.22;;;-2.93;70.98
57779;BME280;43608;49.486;9.640;2023-04-04T01:26:20;99662.97;;;-2.97;71.05
57779;BME280;43608;49.486;9.640;2023-04-04T01:26:50;99652.19;;;-3.04;71.10
57779;BME280;43608;49.486;9.640;2023-04-04T01:27:21;99646.81;;;-3.07;71.17
57779;BME280;43608;49.486;9.640;2023-04-04T01:27:54;99644.78;;;-3.11;71.12
57779;BME280;43608;49.486;9.640;2023-04-04T01:28:25;99669.97;;;-2.96;71.19
57779;BME280;43608;49.486;9.640;2023-04-04T01:28:57;99670.75;;;-2.97;71.18
57779;BME280;43608;49.486;9.640;2023-04-04T01:29:28;99645.72;;;-3.10;71.26
57779;BME280;43608;49.486;9.640;2023-04-04T01:29:58;99666.03;;;-3.03;71.28
57779;BME280;43608;49.486;9.640;2023-04-04T01:30:34;99667.06;;;-3.01;71.17
57779;BME280;43608;49.486;9.640;2023-04-04T01:31:08;99664.13;;;-3.06;71.36
57779;BME280;43608;49.486;9.640;2023-04-04T01:31:43;99645.50;;;-3.13;71.17
57779;BME280;43608;49.486;9.640;2023-04-04T01:32:29;99656.88;;;-3.11;71.24
57779;BME280;43608;49.486;9.640;2023-04-04T01:33:19;99667.56;;;-3.07;71.30
57779;BME280;43608;49.486;9.640;2023-04-04T01:33:59;99619.84;;;-3.36;71.20
57779;BME280;43608;49.486;9.640;2023-04-04T01:34:45;99655.75;;;-3.15;71.35
57779;BME280;43608;49.486;9.640;2023-04-04T01:35:26;99671.63;;;-3.10;71.55
57779;BME280;43608;49.486;9.640;2023-04-04T01:36:12;99667.16;;;-3.13;71.79
57779;BME280;43608;49.486;9.640;2023-04-04T01:36:51;99663.63;;;-3.13;71.68
57779;BME280;43608;49.486;9.640;2023-04-04T01:37:31;99648.31;;;-3.24;71.82
57779;BME280;43608;49.486;9.640;2023-04-04T01:38:07;99660.06;;;-3.16;71.92
57779;BME280;43608;49.486;9.640;2023-04-04T01:39:24;99658.25;;;-3.17;71.86
57779;BME280;43608;49.486;9.640;2023-04-04T01:40:56;99660.66;;;-3.20;72.11
57779;BME280;43608;49.486;9.640;2023-04-04T01:41:30;99652.66;;;-3.23;71.94
57779;BME280;43608;49.486;9.640;2023-04-04T01:42:02;99646.50;;;-3.25;71.88
57779;BME280;43608;49.486;9.640;2023-04-04T01:42:32;99645.72;;;-3.24;71.99
57779;BME280;43608;49.486;9.640;2023-04-04T01:43:04;99665.25;;;-3.16;72.09
57779;BME280;43608;49.486;9.640;2023-04-04T01:43:34;99649.28;;;-3.22;71.90
57779;BME280;43608;49.486;9.640;2023-04-04T01:44:05;99661.75;;;-3.16;71.90
57779;BME280;43608;49.486;9.640;2023-04-04T01:44:35;99654.56;;;-3.20;71.81
57779;BME280;43608;49.486;9.640;2023-04-04T01:45:06;99665.16;;;-3.17;71.98
57779;BME280;43608;49.486;9.640;2023-04-04T01:45:37;99646.50;;;-3.25;71.94
57779;BME280;43608;49.486;9.640;2023-04-04T01:46:07;99635.72;;;-3.31;71.71
57779;BME280;43608;49.486;9.640;2023-04-04T01:46:41;99662.34;;;-3.20;71.71
57779;BME280;43608;49.486;9.640;2023-04-04T01:47:12;99644.50;;;-3.29;71.61
57779;BME280;43608;49.486;9.640;2023-04-04T01:47:43;99655.16;;;-3.24;71.90
57779;BME280;43608;49.486;9.640;2023-04-04T01:48:13;99630.03;;;-3.39;71.97
57779;BME280;43608;49.486;9.640;2023-04-04T01:48:45;99646.97;;;-3.30;71.81
57779;BME280;43608;49.486;9.640;2023-04-04T01:49:16;99627.44;;;-3.39;71.83
57779;BME280;43608;49.486;9.640;2023-04-04T01:49:47;99637.31;;;-3.33;72.17
57779;BME280;43608;49.486;9.640;2023-04-04T01:50:18;99655.25;;;-3.23;72.20
57779;BME280;43608;49.486;9.640;2023-04-04T01:50:48;99654.97;;;-3.27;72.08
57779;BME280;43608;49.486;9.640;2023-04-04T01:51:20;99634.50;;;-3.36;72.05
57779;BME280;43608;49.486;9.640;2023-04-04T01:51:51;99649.56;;;-3.30;72.07
57779;BME280;43608;49.486;9.640;2023-04-04T01:52:22;99666.31;;;-3.25;72.17
57779;BME280;43608;49.486;9.640;2023-04-04T01:52:53;99652.06;;;-3.32;72.26
57779;BME280;43608;49.486;9.640;2023-04-04T01:53:23;99587.53;;;-3.68;72.19
57779;BME280;43608;49.486;9.640;2023-04-04T01:53:53;99649.69;;;-3.29;72.04
57779;BME280;43608;49.486;9.640;2023-04-04T01:54:24;99651.38;;;-3.29;72.04
57779;BME280;43608;49.486;9.640;2023-04-04T01:54:57;99644.00;;;-3.37;72.08
57779;BME280;43608;49.486;9.640;2023-04-04T01:55:27;99659.25;;;-3.28;72.32
57779;BME280;43608;49.486;9.640;2023-04-04T01:55:59;99644.97;;;-3.35;72.15
57779;BME280;43608;49.486;9.640;2023-04-04T01:56:29;99653.06;;;-3.30;72.32
57779;BME280;43608;49.486;9.640;2023-04-04T01:56:59;99633.31;;;-3.41;72.42
57779;BME280;43608;49.486;9.640;2023-04-04T01:57:30;99657.47;;;-3.29;72.25
57779;BME280;43608;49.486;9.640;2023-04-04T01:58:00;99650.38;;;-3.32;72.43
57779;BME280;43608;49.486;9.640;2023-04-04T01:58:31;99647.78;;;-3.32;72.34
57779;BME280;43608;49.486;9.640;2023-04-04T01:59:01;99640.59;;;-3.36;72.09
57779;BME280;43608;49.486;9.640;2023-04-04T01:59:32;99655.66;;;-3.30;72.29
57779;BME280;43608;49.486;9.640;2023-04-04T02:00:05;99646.78;;;-3.34;72.16
57779;BME280;43608;49.486;9.640;2023-04-04T02:00:36;99639.50;;;-3.39;72.37
57779;BME280;43608;49.486;9.640;2023-04-04T02:01:06;99651.19;;;-3.33;72.25
57779;BME280;43608;49.486;9.640;2023-04-04T02:01:37;99634.19;;;-3.41;72.43
57779;BME280;43608;49.486;9.640;2023-04-04T02:02:08;99636.91;;;-3.39;72.58
57779;BME280;43608;49.486;9.640;2023-04-04T02:02:38;99646.88;;;-3.32;72.60
57779;BME280;43608;49.486;9.640;2023-04-04T02:03:08;99641.00;;;-3.43;72.79
57779;BME280;43608;49.486;9.640;2023-04-04T02:03:39;99618.53;;;-3.56;72.39
57779;BME280;43608;49.486;9.640;2023-04-04T02:04:12;99650.06;;;-3.36;72.76
57779;BME280;43608;49.486;9.640;2023-04-04T02:04:43;99624.75;;;-3.54;72.66
57779;BME280;43608;49.486;9.640;2023-04-04T02:05:13;99616.66;;;-3.58;72.68
57779;BME280;43608;49.486;9.640;2023-04-04T02:05:47;99634.78;;;-3.45;72.84
57779;BME280;43608;49.486;9.640;2023-04-04T02:06:17;99621.03;;;-3.57;72.88
57779;BME280;43608;49.486;9.640;2023-04-04T02:06:48;99652.34;;;-3.41;72.80
57779;BME280;43608;49.486;9.640;2023-04-04T02:07:19;99646.09;;;-3.44;72.72
57779;BME280;43608;49.486;9.640;2023-04-04T02:07:49;99657.66;;;-3.39;73.05
57779;BME280;43608;49.486;9.640;2023-04-04T02:08:20;99653.94;;;-3.43;72.97
57779;BME280;43608;49.486;9.640;2023-04-04T02:08:51;99656.63;;;-3.41;72.93
57779;BME280;43608;49.486;9.640;2023-04-04T02:09:22;99634.97;;;-3.55;73.05
57779;BME280;43608;49.486;9.640;2023-04-04T02:09:52;99643.16;;;-3.49;73.20
57779;BME280;43608;49.486;9.640;2023-04-04T02:10:23;99657.44;;;-3.42;73.33
57779;BME280;43608;49.486;9.640;2023-04-04T02:10:56;99643.06;;;-3.51;73.32
57779;BME280;43608;49.486;9.640;2023-04-04T02:11:27;99652.84;;;-3.46;73.33
57779;BME280;43608;49.486;9.640;2023-04-04T02:11:57;99650.16;;;-3.48;73.52
57779;BME280;43608;49.486;9.640;2023-04-04T02:12:27;99649.38;;;-3.47;73.31
57779;BME280;43608;49.486;9.640;2023-04-04T02:12:58;99645.66;;;-3.51;73.44
57779;BME280;43608;49.486;9.640;2023-04-04T02:13:28;99634.19;;;-3.54;73.46
57779;BME280;43608;49.486;9.640;2023-04-04T02:13:59;99650.16;;;-3.48;73.21
57779;BME280;43608;49.486;9.640;2023-04-04T02:14:29;99648.06;;;-3.54;73.64
57779;BME280;43608;49.486;9.640;2023-04-04T02:15:00;99660.09;;;-3.54;73.23
57779;BME280;43608;49.486;9.640;2023-04-04T02:15:30;99660.28;;;-3.51;73.45
57779;BME280;43608;49.486;9.640;2023-04-04T02:16:01;99639.88;;;-3.60;73.52
57779;BME280;43608;49.486;9.640;2023-04-04T02:16:31;99630.66;;;-3.68;73.47
57779;BME280;43608;49.486;9.640;2023-04-04T02:17:01;99652.22;;;-3.56;73.51
57779;BME280;43608;49.486;9.640;2023-04-04T02:17:32;99620.19;;;-3.70;73.56
57779;BME280;43608;49.486;9.640;2023-04-04T02:18:04;99637.06;;;-3.63;73.44
57779;BME280;43608;49.486;9.640;2023-04-04T02:18:35;99634.16;;;-3.68;73.50
57779;BME280;43608;49.486;9.640;2023-04-04T02:19:06;99651.13;;;-3.59;73.60
57779;BME280;43608;49.486;9.640;2023-04-04T02:19:36;99639.53;;;-3.65;73.62
57779;BME280;43608;49.486;9.640;2023-04-04T02:20:07;99652.91;;;-3.58;73.78
57779;BME280;43608;49.486;9.640;2023-04-04T02:20:39;99625.19;;;-3.73;73.77
57779;BME280;43608;49.486;9.640;2023-04-04T02:21:10;99658.19;;;-3.57;73.94
57779;BME280;43608;49.486;9.640;2023-04-04T02:21:40;99647.66;;;-3.60;73.77
57779;BME280;43608;49.486;9.640;2023-04-04T02:22:10;99657.31;;;-3.57;73.85
57779;BME280;43608;49.486;9.640;2023-04-04T02:22:41;99649.53;;;-3.57;73.90
57779;BME280;43608;49.486;9.640;2023-04-04T02:23:11;99650.34;;;-3.58;73.88
57779;BME280;43608;49.486;9.640;2023-04-04T02:23:41;99632.28;;;-3.70;74.11
57779;BME280;43608;49.486;9.640;2023-04-04T02:24:12;99647.41;;;-3.63;73.78
57779;BME280;43608;49.486;9.640;2023-04-04T02:24:42;99622.28;;;-3.77;74.10
57779;BME280;43608;49.486;9.640;2023-04-04T02:25:13;99652.72;;;-3.61;73.96
57779;BME280;43608;49.486;9.640;2023-04-04T02:25:43;99647.13;;;-3.68;73.74
57779;BME280;43608;49.486;9.640;2023-04-04T02:26:14;99645.66;;;-3.64;74.14
57779;BME280;43608;49.486;9.640;2023-04-04T02:26:44;99655.19;;;-3.63;74.09
57779;BME280;43608;49.486;9.640;2023-04-04T02:27:15;99637.22;;;-3.73;74.23
57779;BME280;43608;49.486;9.640;2023-04-04T02:27:45;99630.97;;;-3.77;74.21
57779;BME280;43608;49.486;9.640;2023-04-04T02:28:16;99637.13;;;-3.75;74.36
57779;BME280;43608;49.486;9.640;2023-04-04T02:28:46;99639.72;;;-3.75;74.29
57779;BME280;43608;49.486;9.640;2023-04-04T02:29:17;99656.56;;;-3.68;74.50
57779;BME280;43608;49.486;9.640;2023-04-04T02:29:48;99652.22;;;-3.69;74.43
57779;BME280;43608;49.486;9.640;2023-04-04T02:30:18;99645.91;;;-3.73;74.48
57779;BME280;43608;49.486;9.640;2023-04-04T02:30:49;99635.81;;;-3.82;74.64
57779;BME280;43608;49.486;9.640;2023-04-04T02:31:19;99652.91;;;-3.72;74.51
57779;BME280;43608;49.486;9.640;2023-04-04T02:31:49;99651.97;;;-3.72;74.46
57779;BME280;43608;49.486;9.640;2023-04-04T02:32:21;99631.44;;;-3.83;74.42
57779;BME280;43608;49.486;9.640;2023-04-04T02:32:52;99639.28;;;-3.81;74.71
57779;BME280;43608;49.486;9.640;2023-04-04T02:33:22;99642.31;;;-3.75;74.70
57779;BME280;43608;49.486;9.640;2023-04-04T02:33:52;99620.34;;;-3.93;75.03
57779;BME280;43608;49.486;9.640;2023-04-04T02:34:23;99627.53;;;-3.89;74.78
57779;BME280;43608;49.486;9.640;2023-04-04T02:34:53;99608.78;;;-3.99;75.15
57779;BME280;43608;49.486;9.640;2023-04-04T02:35:24;99647.28;;;-3.78;74.99
57779;BME280;43608;49.486;9.640;2023-04-04T02:35:58;99648.19;;;-3.77;75.11
57779;BME280;43608;49.486;9.640;2023-04-04T02:36:28;99627.44;;;-3.91;74.91
57779;BME280;43608;49.486;9.640;2023-04-04T02:36:59;99633.03;;;-3.85;75.11
57779;BME280;43608;49.486;9.640;2023-04-04T02:37:29;99621.91;;;-3.95;75.08
57779;BME280;43608;49.486;9.640;2023-04-04T02:38:00;99647.19;;;-3.79;75.18
57779;BME280;43608;49.486;9.640;2023-04-04T02:38:31;99654.03;;;-3.80;74.93
57779;BME280;43608;49.486;9.640;2023-04-04T02:39:01;99641.59;;;-3.86;74.97
57779;BME280;43608;49.486;9.640;2023-04-04T02:39:33;99637.00;;;-3.90;75.17
57779;BME280;43608;49.486;9.640;2023-04-04T02:40:04;99644.97;;;-3.87;75.19
57779;BME280;43608;49.486;9.640;2023-04-04T02:40:35;99623.63;;;-3.96;75.18
57779;BME280;43608;49.486;9.640;2023-04-04T02:41:08;99621.72;;;-3.99;75.43
57779;BME280;43608;49.486;9.640;2023-04-04T02:41:38;99646.78;;;-3.86;75.08
57779;BME280;43608;49.486;9.640;2023-04-04T02:42:09;99653.75;;;-3.85;75.42
57779;BME280;43608;49.486;9.640;2023-04-04T02:42:45;99632.28;;;-3.95;75.19
57779;BME280;43608;49.486;9.640;2023-04-04T02:43:16;99634.88;;;-3.95;75.32
57779;BME280;43608;49.486;9.640;2023-04-04T02:43:46;99651.06;;;-3.86;75.35
57779;BME280;43608;49.486;9.640;2023-04-04T02:44:16;99647.47;;;-3.88;75.56
57779;BME280;43608;49.486;9.640;2023-04-04T02:44:47;99656.25;;;-3.86;75.22
57779;BME280;43608;49.486;9.640;2023-04-04T02:45:17;99650.94;;;-3.88;75.34
57779;BME280;43608;49.486;9.640;2023-04-04T02:45:48;99635.78;;;-3.95;75.33
57779;BME280;43608;49.486;9.640;2023-04-04T02:46:18;99647.47;;;-3.88;75.38
57779;BME280;43608;49.486;9.640;2023-04-04T02:46:48;99642.97;;;-3.91;75.64
57779;BME280;43608;49.486;9.640;2023-04-04T02:47:19;99648.03;;;-3.92;75.63
57779;BME280;43608;49.486;9.640;2023-04-04T02:47:50;99648.16;;;-3.91;75.61
57779;BME280;43608;49.486;9.640;2023-04-04T02:48:21;99631.88;;;-4.02;75.42
57779;BME280;43608;49.486;9.640;2023-04-04T02:48:51;99637.47;;;-3.95;75.58
57779;BME280;43608;49.486;9.640;2023-04-04T02:49:22;99633.78;;;-3.99;75.49